createdAt,value
2022-11-26T00:00:30.581Z,4.83
2022-11-26T00:02:58.873Z,4.78
2022-11-26T00:05:32.439Z,4.72
2022-11-26T00:08:02.050Z,4.72
2022-11-26T00:10:35.646Z,4.68
2022-11-26T00:13:03.633Z,4.67
2022-11-26T00:15:32.985Z,4.66
2022-11-26T00:18:00.992Z,4.65
2022-11-26T00:20:31.637Z,4.50
2022-11-26T00:23:03.316Z,4.61
2022-11-26T00:25:39.623Z,4.61
2022-11-26T00:28:26.366Z,4.57
2022-11-26T00:30:56.081Z,4.57
2022-11-26T00:33:24.364Z,4.52
2022-11-26T00:35:56.905Z,4.51
2022-11-26T00:38:25.551Z,4.48
2022-11-26T00:40:54.896Z,4.35
2022-11-26T00:43:23.138Z,4.45
2022-11-26T00:45:51.173Z,4.43
2022-11-26T00:48:19.396Z,4.41
2022-11-26T00:50:50.122Z,4.39
2022-11-26T00:53:20.092Z,4.37
2022-11-26T00:55:50.457Z,4.33
2022-11-26T00:58:26.613Z,4.32
2022-11-26T01:00:55.874Z,4.33
2022-11-26T01:03:24.219Z,4.33
2022-11-26T01:05:53.834Z,4.34
2022-11-26T01:08:29.752Z,4.35
2022-11-26T01:10:58.158Z,4.37
2022-11-26T01:13:28.041Z,4.37
2022-11-26T01:15:57.169Z,4.38
2022-11-26T01:18:26.407Z,4.37
2022-11-26T01:20:54.504Z,4.39
2022-11-26T01:23:22.804Z,4.38
2022-11-26T01:25:50.959Z,4.40
2022-11-26T01:28:20.036Z,4.40
2022-11-26T01:30:49.401Z,4.39
2022-11-26T01:33:17.339Z,4.39
2022-11-26T01:35:45.299Z,4.38
2022-11-26T01:38:15.578Z,4.37
2022-11-26T01:41:03.621Z,4.35
2022-11-26T01:43:37.625Z,4.32
2022-11-26T01:46:15.696Z,4.29
2022-11-26T01:48:43.858Z,4.11
2022-11-26T01:51:12.774Z,4.11
2022-11-26T01:53:48.068Z,4.20
2022-11-26T01:56:20.999Z,4.22
2022-11-26T01:58:54.268Z,4.16
2022-11-26T02:01:23.701Z,4.21
2022-11-26T02:04:00.827Z,4.16
2022-11-26T02:06:33.191Z,4.13
2022-11-26T02:09:03.334Z,4.13
2022-11-26T02:11:31.294Z,4.13
2022-11-26T02:14:03.469Z,4.11
2022-11-26T02:16:58.593Z,4.11
2022-11-26T02:20:03.433Z,4.11
2022-11-26T02:22:48.239Z,4.06
2022-11-26T02:25:20.618Z,4.06
2022-11-26T02:28:16.430Z,4.02
2022-11-26T02:30:50.123Z,4.04
2022-11-26T02:33:23.112Z,3.98
2022-11-26T02:35:57.866Z,4.03
2022-11-26T02:38:30.345Z,4.02
2022-11-26T02:40:58.592Z,3.97
2022-11-26T02:43:27.617Z,3.97
2022-11-26T02:46:01.837Z,3.96
2022-11-26T02:48:35.223Z,3.96
2022-11-26T02:51:06.156Z,3.95
2022-11-26T02:53:40.130Z,3.96
2022-11-26T02:56:11.236Z,3.97
2022-11-26T02:58:39.656Z,3.98
2022-11-26T03:01:13.695Z,3.85
2022-11-26T03:03:47.933Z,3.99
2022-11-26T03:06:18.347Z,3.97
2022-11-26T03:08:47.024Z,4.00
2022-11-26T03:11:14.956Z,4.00
2022-11-26T03:13:42.951Z,3.99
2022-11-26T03:16:12.297Z,3.97
2022-11-26T03:18:40.319Z,3.95
2022-11-26T03:21:08.772Z,3.86
2022-11-26T03:23:36.749Z,3.91
2022-11-26T03:26:04.737Z,3.90
2022-11-26T03:28:32.729Z,3.90
2022-11-26T03:31:00.731Z,3.90
2022-11-26T03:33:30.023Z,3.91
2022-11-26T03:35:58.027Z,3.87
2022-11-26T03:38:25.997Z,3.85
2022-11-26T03:40:57.831Z,3.84
2022-11-26T03:43:25.847Z,3.82
2022-11-26T03:45:54.090Z,3.81
2022-11-26T03:48:22.194Z,3.83
2022-11-26T03:50:51.489Z,3.78
2022-11-26T03:53:19.475Z,3.82
2022-11-26T03:55:49.430Z,3.80
2022-11-26T03:58:17.433Z,3.81
2022-11-26T04:00:45.447Z,3.80
2022-11-26T04:03:13.448Z,3.77
2022-11-26T04:05:41.448Z,3.77
2022-11-26T04:08:10.813Z,3.78
2022-11-26T04:10:38.785Z,3.80
2022-11-26T04:13:06.920Z,3.85
2022-11-26T04:15:35.117Z,3.85
2022-11-26T04:18:03.064Z,3.83
2022-11-26T04:20:31.011Z,3.81
2022-11-26T04:22:58.979Z,3.83
2022-11-26T04:25:28.287Z,3.77
2022-11-26T04:27:56.618Z,3.77
2022-11-26T04:30:25.157Z,3.77
2022-11-26T04:32:53.228Z,3.75
2022-11-26T04:35:21.258Z,3.67
2022-11-26T04:37:49.251Z,3.69
2022-11-26T04:40:17.238Z,3.69
2022-11-26T04:42:46.564Z,3.66
2022-11-26T04:45:14.501Z,3.63
2022-11-26T04:47:43.281Z,3.56
2022-11-26T04:50:12.331Z,3.51
2022-11-26T04:52:40.369Z,3.48
2022-11-26T04:55:08.922Z,3.40
2022-11-26T04:57:37.005Z,3.42
2022-11-26T05:00:08.393Z,3.38
2022-11-26T05:02:36.397Z,3.39
2022-11-26T05:05:04.513Z,3.34
2022-11-26T05:07:32.563Z,3.35
2022-11-26T05:10:00.548Z,3.34
2022-11-26T05:12:28.825Z,3.29
2022-11-26T05:14:56.798Z,3.30
2022-11-26T05:17:26.123Z,3.29
2022-11-26T05:19:54.040Z,3.26
2022-11-26T05:22:22.015Z,3.29
2022-11-26T05:24:50.013Z,3.24
2022-11-26T05:27:17.975Z,3.28
2022-11-26T05:29:45.970Z,3.23
2022-11-26T05:32:13.919Z,3.24
2022-11-26T05:34:43.479Z,3.26
2022-11-26T05:37:11.674Z,3.32
2022-11-26T05:39:39.719Z,3.34
2022-11-26T05:42:09.376Z,3.36
2022-11-26T05:44:38.159Z,3.45
2022-11-26T05:47:06.512Z,3.50
2022-11-26T05:49:34.666Z,3.46
2022-11-26T05:52:04.024Z,3.55
2022-11-26T05:54:32.071Z,3.56
2022-11-26T05:57:00.518Z,3.54
2022-11-26T05:59:28.920Z,3.58
2022-11-26T06:01:57.201Z,3.64
2022-11-26T06:04:25.473Z,3.60
2022-11-26T06:06:53.384Z,3.55
2022-11-26T06:09:22.730Z,3.54
2022-11-26T06:11:51.111Z,3.55
2022-11-26T06:14:19.558Z,3.54
2022-11-26T06:16:47.665Z,3.63
2022-11-26T06:19:15.795Z,3.59
2022-11-26T06:21:43.699Z,3.59
2022-11-26T06:24:11.952Z,3.62
2022-11-26T06:26:41.572Z,3.59
2022-11-26T06:29:09.555Z,3.61
2022-11-26T06:31:37.555Z,3.67
2022-11-26T06:34:05.668Z,3.65
2022-11-26T06:36:33.720Z,3.70
2022-11-26T06:39:01.698Z,3.65
2022-11-26T06:41:29.681Z,3.67
2022-11-26T06:43:59.683Z,3.67
2022-11-26T06:46:27.658Z,3.72
2022-11-26T06:48:55.668Z,3.76
2022-11-26T06:51:27.775Z,3.80
2022-11-26T06:53:55.761Z,3.77
2022-11-26T06:56:23.859Z,3.79
2022-11-26T06:58:55.299Z,3.80
2022-11-26T07:01:26.402Z,3.78
2022-11-26T07:03:55.346Z,3.85
2022-11-26T07:06:25.159Z,3.82
2022-11-26T07:08:54.853Z,3.88
2022-11-26T07:11:24.112Z,3.86
2022-11-26T07:13:52.522Z,3.82
2022-11-26T07:16:21.151Z,3.84
2022-11-26T07:18:51.493Z,3.83
2022-11-26T07:21:20.744Z,3.88
2022-11-26T07:23:49.195Z,3.88
2022-11-26T07:26:19.389Z,3.91
2022-11-26T07:28:48.111Z,3.92
2022-11-26T07:31:18.641Z,3.94
2022-11-26T07:33:47.730Z,3.92
2022-11-26T07:36:18.921Z,3.95
2022-11-26T07:38:47.103Z,3.95
2022-11-26T07:41:17.653Z,3.92
2022-11-26T07:43:46.440Z,3.98
2022-11-26T07:46:18.179Z,4.05
2022-11-26T07:48:46.828Z,4.03
2022-11-26T07:51:21.147Z,4.07
2022-11-26T07:53:50.015Z,4.06
2022-11-26T07:56:18.901Z,4.05
2022-11-26T07:58:47.210Z,3.99
2022-11-26T08:01:17.281Z,4.07
2022-11-26T08:03:47.148Z,4.11
2022-11-26T08:06:17.083Z,4.13
2022-11-26T08:08:46.709Z,4.14
2022-11-26T08:11:16.548Z,4.14
2022-11-26T08:13:45.569Z,4.17
2022-11-26T08:16:14.442Z,4.17
2022-11-26T08:18:42.952Z,4.22
2022-11-26T08:21:11.354Z,4.25
2022-11-26T08:23:39.885Z,4.25
2022-11-26T08:26:24.013Z,4.28
2022-11-26T08:28:56.229Z,4.33
2022-11-26T08:31:24.855Z,4.34
2022-11-26T08:33:53.050Z,4.36
2022-11-26T08:36:21.002Z,4.39
2022-11-26T08:38:48.945Z,4.46
2022-11-26T08:41:18.338Z,4.45
2022-11-26T08:46:34.286Z,4.41
2022-11-26T08:49:02.334Z,4.44
2022-11-26T08:51:30.270Z,4.50
2022-11-26T08:53:58.215Z,4.48
2022-11-26T08:56:27.760Z,4.52
2022-11-26T08:58:55.772Z,4.48
2022-11-26T09:01:26.358Z,4.54
2022-11-26T09:03:56.646Z,4.56
2022-11-26T09:06:26.673Z,4.57
2022-11-26T09:09:12.238Z,4.60
2022-11-26T09:11:43.730Z,4.68
2022-11-26T09:14:12.520Z,4.67
2022-11-26T09:16:40.634Z,4.66
2022-11-26T09:19:09.772Z,4.71
2022-11-26T09:21:38.187Z,4.68
2022-11-26T09:24:06.599Z,4.72
2022-11-26T09:26:35.256Z,4.75
2022-11-26T09:29:04.970Z,4.72
2022-11-26T09:31:33.433Z,4.73
2022-11-26T09:34:02.488Z,4.82
2022-11-26T09:36:30.602Z,4.91
2022-11-26T09:38:59.825Z,4.88
2022-11-26T09:41:39.559Z,4.86
2022-11-26T09:44:22.211Z,4.82
2022-11-26T09:47:14.829Z,4.82
2022-11-26T09:49:56.246Z,4.78
2022-11-26T09:52:27.887Z,4.79
2022-11-26T09:55:05.667Z,4.78
2022-11-26T09:57:41.058Z,4.83
2022-11-26T10:00:26.355Z,4.84
2022-11-26T10:02:55.693Z,4.88
2022-11-26T10:05:26.123Z,4.93
2022-11-26T10:08:04.256Z,4.98
2022-11-26T10:10:42.747Z,5.05
2022-11-26T10:13:21.460Z,5.06
2022-11-26T10:16:01.827Z,4.99
2022-11-26T10:18:41.169Z,5.07
2022-11-26T10:21:27.210Z,5.08
2022-11-26T10:23:59.932Z,5.06
2022-11-26T10:26:30.816Z,5.01
2022-11-26T10:29:16.947Z,5.02
2022-11-26T10:31:49.225Z,5.01
2022-11-26T10:34:20.560Z,5.10
2022-11-26T10:36:49.472Z,5.14
2022-11-26T10:39:20.492Z,5.26
2022-11-26T10:41:49.186Z,5.34
2022-11-26T10:44:37.033Z,5.52
2022-11-26T10:47:26.689Z,5.51
2022-11-26T10:49:56.651Z,5.55
2022-11-26T10:52:28.009Z,5.49
2022-11-26T10:55:20.044Z,5.47
2022-11-26T10:57:52.803Z,5.39
2022-11-26T11:00:31.655Z,5.41
2022-11-26T11:03:02.203Z,5.46
2022-11-26T11:05:30.452Z,5.48
2022-11-26T11:07:58.572Z,5.55
2022-11-26T11:10:27.855Z,5.53
2022-11-26T11:13:05.061Z,5.47
2022-11-26T11:15:36.174Z,5.41
2022-11-26T11:18:08.426Z,5.44
2022-11-26T11:20:38.227Z,5.44
2022-11-26T11:23:19.659Z,5.48
2022-11-26T11:25:58.315Z,5.45
2022-11-26T11:28:29.052Z,5.43
2022-11-26T11:31:04.488Z,5.37
2022-11-26T11:33:34.297Z,5.21
2022-11-26T11:36:06.293Z,5.22
2022-11-26T11:38:46.834Z,5.30
2022-11-26T11:41:22.588Z,5.35
2022-11-26T11:43:50.754Z,5.43
2022-11-26T11:46:37.511Z,5.47
2022-11-26T11:49:23.315Z,5.51
2022-11-26T11:52:05.275Z,5.43
2022-11-26T11:54:45.813Z,5.47
2022-11-26T11:57:22.673Z,5.45
2022-11-26T12:00:13.526Z,5.42
2022-11-26T12:03:14.012Z,5.46
2022-11-26T12:06:06.085Z,5.52
2022-11-26T12:08:44.832Z,5.56
2022-11-26T12:11:29.363Z,5.49
2022-11-26T12:14:03.983Z,5.48
2022-11-26T12:16:36.855Z,5.46
2022-11-26T12:19:13.263Z,5.43
2022-11-26T12:21:46.930Z,5.37
2022-11-26T12:24:21.003Z,5.38
2022-11-26T12:26:54.194Z,5.40
2022-11-26T12:29:31.744Z,5.40
2022-11-26T12:32:03.755Z,5.42
2022-11-26T12:34:35.307Z,5.44
2022-11-26T12:37:12.941Z,5.47
2022-11-26T12:39:53.808Z,5.44
2022-11-26T12:42:29.250Z,5.47
2022-11-26T12:45:07.130Z,5.44
2022-11-26T12:47:39.268Z,5.39
2022-11-26T12:50:16.371Z,5.37
2022-11-26T12:52:53.625Z,5.39
2022-11-26T12:55:26.834Z,5.45
2022-11-26T12:57:59.735Z,5.48
2022-11-26T13:00:35.752Z,5.46
2022-11-26T13:03:06.836Z,5.47
2022-11-26T13:05:51.280Z,5.46
2022-11-26T13:08:39.039Z,5.43
2022-11-26T13:11:22.051Z,5.43
2022-11-26T13:13:59.515Z,5.46
2022-11-26T13:16:35.801Z,5.46
2022-11-26T13:19:08.158Z,5.45
2022-11-26T13:21:50.668Z,5.42
2022-11-26T13:24:46.108Z,5.34
2022-11-26T13:27:32.589Z,5.37
2022-11-26T13:30:15.898Z,5.37
2022-11-26T13:33:16.026Z,5.33
2022-11-26T13:36:06.979Z,5.34
2022-11-26T13:38:49.253Z,5.36
2022-11-26T13:41:40.531Z,5.39
2022-11-26T13:44:39.269Z,5.37
2022-11-26T13:47:11.987Z,5.39
2022-11-26T13:49:45.066Z,5.43
2022-11-26T13:52:16.813Z,5.46
2022-11-26T13:54:49.003Z,5.43
2022-11-26T13:57:22.404Z,5.43
2022-11-26T13:59:52.468Z,5.41
2022-11-26T14:02:42.588Z,5.45
2022-11-26T14:05:13.060Z,5.42
2022-11-26T14:07:41.640Z,5.39
2022-11-26T14:10:41.411Z,5.46
2022-11-26T14:13:16.406Z,5.48
2022-11-26T14:15:56.508Z,5.49
2022-11-26T14:19:07.523Z,5.48
2022-11-26T14:22:01.269Z,5.49
2022-11-26T14:24:57.677Z,5.50
2022-11-26T14:27:27.597Z,5.50
2022-11-26T14:30:01.181Z,5.51
2022-11-26T14:32:34.626Z,5.51
2022-11-26T14:35:02.568Z,5.48
2022-11-26T14:37:32.346Z,5.48
2022-11-26T14:40:01.372Z,5.46
2022-11-26T14:42:30.211Z,5.44
2022-11-26T14:45:03.943Z,5.43
2022-11-26T14:47:33.737Z,5.40
2022-11-26T14:50:05.881Z,5.39
2022-11-26T14:52:36.642Z,5.37
2022-11-26T14:55:09.495Z,5.34
2022-11-26T14:57:43.422Z,5.33
2022-11-26T15:00:23.914Z,5.31
2022-11-26T15:02:53.039Z,5.32
2022-11-26T15:05:23.943Z,5.36
2022-11-26T15:08:00.552Z,5.35
2022-11-26T15:11:26.840Z,5.37
2022-11-26T15:13:54.888Z,5.39
2022-11-26T15:16:29.100Z,5.41
2022-11-26T15:18:59.007Z,5.42
2022-11-26T15:21:29.088Z,5.41
2022-11-26T15:24:00.486Z,5.44
2022-11-26T15:26:33.736Z,5.45
2022-11-26T15:29:02.191Z,5.46
2022-11-26T15:34:19.033Z,5.46
2022-11-26T15:36:47.074Z,5.47
2022-11-26T15:39:26.083Z,5.46
2022-11-26T15:41:56.505Z,5.48
2022-11-26T15:44:27.212Z,5.49
2022-11-26T15:46:58.587Z,5.49
2022-11-26T15:49:30.043Z,5.47
2022-11-26T15:52:01.665Z,5.48
2022-11-26T15:54:49.721Z,5.45
2022-11-26T15:57:26.856Z,5.43
2022-11-26T15:59:58.163Z,5.41
2022-11-26T16:02:31.057Z,5.41
2022-11-26T16:05:00.135Z,5.41
2022-11-26T16:07:30.008Z,5.38
2022-11-26T16:10:21.349Z,5.38
2022-11-26T16:13:19.660Z,5.39
2022-11-26T16:15:50.775Z,5.28
2022-11-26T16:18:24.748Z,5.37
2022-11-26T16:21:03.331Z,5.33
2022-11-26T16:23:32.041Z,5.33
2022-11-26T16:26:16.162Z,5.35
2022-11-26T16:28:45.377Z,5.34
2022-11-26T16:31:13.883Z,5.30
2022-11-26T16:33:45.791Z,5.36
2022-11-26T16:36:21.755Z,5.22
2022-11-26T16:38:50.629Z,5.35
2022-11-26T16:41:21.349Z,5.36
2022-11-26T16:43:49.549Z,5.39
2022-11-26T16:46:19.408Z,5.41
2022-11-26T16:48:49.046Z,5.38
2022-11-26T16:51:17.747Z,5.39
2022-11-26T16:53:45.851Z,5.40
2022-11-26T16:56:20.501Z,5.42
2022-11-26T16:58:49.153Z,5.44
2022-11-26T17:01:17.187Z,5.44
2022-11-26T17:03:45.289Z,5.44
2022-11-26T17:06:18.952Z,5.45
2022-11-26T17:08:49.754Z,5.46
2022-11-26T17:11:18.718Z,5.47
2022-11-26T17:13:46.878Z,5.49
2022-11-26T17:16:16.690Z,5.50
2022-11-26T17:18:45.072Z,5.49
2022-11-26T17:21:13.243Z,5.52
2022-11-26T17:23:42.936Z,5.50
2022-11-26T17:26:18.824Z,5.52
2022-11-26T17:28:46.836Z,5.55
2022-11-26T17:31:15.095Z,5.55
2022-11-26T17:33:43.281Z,5.54
2022-11-26T17:36:16.595Z,5.54
2022-11-26T17:38:46.924Z,5.56
2022-11-26T17:41:15.760Z,5.35
2022-11-26T17:43:44.057Z,5.57
2022-11-26T17:46:18.197Z,5.60
2022-11-26T17:48:46.894Z,5.59
2022-11-26T17:51:15.964Z,5.55
2022-11-26T17:53:44.417Z,5.62
2022-11-26T17:56:19.110Z,5.62
2022-11-26T17:58:47.315Z,5.67
2022-11-26T18:01:16.151Z,5.66
2022-11-26T18:03:44.738Z,5.64
2022-11-26T18:06:16.658Z,5.65
2022-11-26T18:08:45.019Z,5.59
2022-11-26T18:11:13.360Z,5.65
2022-11-26T18:13:42.986Z,5.66
2022-11-26T18:16:10.993Z,5.68
2022-11-26T18:18:39.133Z,5.70
2022-11-26T18:21:07.459Z,5.70
2022-11-26T18:23:35.480Z,5.72
2022-11-26T18:26:03.388Z,5.71
2022-11-26T18:28:31.323Z,5.69
2022-11-26T18:31:00.722Z,5.70
2022-11-26T18:33:28.766Z,5.69
2022-11-26T18:35:56.770Z,5.68
2022-11-26T18:38:28.924Z,5.69
2022-11-26T18:41:02.205Z,5.69
2022-11-26T18:43:30.567Z,5.56
2022-11-26T18:46:02.016Z,5.69
2022-11-26T18:48:30.009Z,5.68
2022-11-26T18:50:58.877Z,5.71
2022-11-26T18:53:27.677Z,5.69
2022-11-26T18:55:56.192Z,5.71
2022-11-26T18:58:24.761Z,5.73
2022-11-26T19:00:58.339Z,5.74
2022-11-26T19:03:28.402Z,5.75
2022-11-26T19:05:56.566Z,5.74
2022-11-26T19:08:24.749Z,5.76
2022-11-26T19:10:52.834Z,5.80
2022-11-26T19:13:20.804Z,5.78
2022-11-26T19:15:49.324Z,5.78
2022-11-26T19:18:18.013Z,5.77
2022-11-26T19:20:52.931Z,5.77
2022-11-26T19:23:24.345Z,5.78
2022-11-26T19:25:52.382Z,5.79
2022-11-26T19:28:20.439Z,5.78
2022-11-26T19:31:01.670Z,5.77
2022-11-26T19:33:30.209Z,5.79
2022-11-26T19:36:00.164Z,5.72
2022-11-26T19:38:28.173Z,5.79
2022-11-26T19:41:00.445Z,5.80
2022-11-26T19:43:32.224Z,5.79
2022-11-26T19:46:04.956Z,5.81
2022-11-26T19:48:34.368Z,5.82
2022-11-26T19:51:04.419Z,5.84
2022-11-26T19:53:32.956Z,5.84
2022-11-26T19:56:02.701Z,5.82
2022-11-26T19:58:32.465Z,5.83
2022-11-26T20:01:01.101Z,5.82
2022-11-26T20:03:34.217Z,5.83
2022-11-26T20:06:08.918Z,5.82
2022-11-26T20:08:38.172Z,5.83
2022-11-26T20:11:08.549Z,5.80
2022-11-26T20:13:38.062Z,5.78
2022-11-26T20:16:07.473Z,5.77
2022-11-26T20:18:36.505Z,5.76
2022-11-26T20:21:08.304Z,5.73
2022-11-26T20:23:36.908Z,5.69
2022-11-26T20:26:13.275Z,5.63
2022-11-26T20:28:41.312Z,5.60
2022-11-26T20:31:09.488Z,5.39
2022-11-26T20:33:37.642Z,5.57
2022-11-26T20:36:13.019Z,5.57
2022-11-26T20:38:41.329Z,5.57
2022-11-26T20:41:10.267Z,5.59
2022-11-26T20:43:38.768Z,5.60
2022-11-26T20:46:08.461Z,5.62
2022-11-26T20:48:39.848Z,5.63
2022-11-26T20:51:11.110Z,5.63
2022-11-26T20:53:40.709Z,5.64
2022-11-26T20:56:09.627Z,5.65
2022-11-26T20:58:37.837Z,5.63
2022-11-26T21:01:06.597Z,5.62
